Airfield :
LOGIN :

Register | Disclaimer

   EN    FR    IT 

 










Legend :    VFR   Marginal VFR   IFR   Intensive IFR   Very Intensive IFR
Visi :
Ceiling :
>= 8 km
>= 3000ft
5 to 8 km
1000 to 3000 ft
1500m to 5 km
500 to 1000 ft
800 to 1500m
200 to 500 ft
< 800m
< 200 ft
Symbols :   Thunderstorms  Fog  Heavy snow  Heavy precipitations  Wind > 20 kt
SIGMETs :     Misc.  Thunderstorms  Icing  Turbulence  Mountain Waves  Volcanic Ashes







- Airport Elevation : 41 ft


LIRE - Pratica di Mare Air Base Pomezia

CURRENT METAR :
  • 270655Z 16006KT 6000 -TSRA SCT020CB BKN030 16/14 Q1005 RMK OVC VIS MIN 6000 WIND THR13 17005KT WIND THR31/////KT WHT

EXPIRED METARs :
  • 270602Z 15005KT 4000 TSRA SCT020CB BKN030 16/14 Q1004 RMK OVC VIS MIN 4000 WIND THR13 16004KT WIND THR31/////KT GRN
  • 270455Z 05008KT 9999 SCT020 BKN040 16/14 Q1004 RMK OVC VIS MIN 9999 WIND THR13 06005KT WIND THR31/////KT BLU

TAF TAF LIRE
Valid from the 27 at 06:00 until the 27 at 15:00 UTC


270500Z 2706/2715 09010KT 8000 SCT020 BKN040
TEMPO 2706/2712 4000 TSRA FEW018CB BKN025
No reported NOTAMs for that airfield.
1 SIGMET reported for the Roma FIR (LIRR) :
 
Severe turbulence
LIRR SIGMET 3 VALID 270430/270830 LIIB
LIRR ROMA FIR SEV TURB FCST WI N4016 E00852 - N4124 E01154 - N3947 E01332 - N3633 E01338 - N3627 E01128 - N3730 E01125 - N3834 E00852 - N4016 E00852 FL240/360 STNR NC=



MET'MAP, your aeronautical weather chart ! - Copyright ORBIFLY December 2007 - Disclaimer

ORBIFLY MET'MAP TEAM :

Programming & Development : Alexandra Zaïnal
Concept & Development : Baudouin d'Aumeries
Co-Development & Prog : Marc-Olivier Méhu
Technical & hardware support : Manuel Goepfert

Contact : metmap@orbifly.com




SOURCES & CREDITS :

   NOAA